Vollmers Atmospheric Data: 07/12/2019 Summary  Detailed Graphs  Station List

  Temperature     Wind Precipitation Visibility
Timestamp Air Wet
Bulb
Dew-
point
24-hr
Max
24-hr
Min
Relative
Humidity
Atmospheric
Pressure
Avg
Speed
Avg
Dir
Spot
Speed
Spot
Dir
Max
Speed
Max
Dir
  Rate Situation Start End 1 hr 3 hr 6 hr 12 hr 24 hr   Situation
Date Time °F °F °F °F °F % in Hg mph ° mph ° mph ° Y/N in/hr text Date Time Date Time in in in in in mi text
07/12/2019 12:13 AM 71.42 61.70 55.76 92.84 62.24 57.0 Not Reported 3.36 W 3.80 NW 3.13 W No 0.000 No Precipitation 06/07/2019 09:29 AM 06/07/2019 09:35 AM 0.000 0.000 0.000 0.000 0.000 Not Reported Not Reported
07/12/2019 12:28 AM 70.70 61.52 55.76 92.84 62.24 59.0 Not Reported 2.91 NW 3.13 NW 4.03 NW No 0.000 No Precipitation 06/07/2019 09:29 AM 06/07/2019 09:35 AM 0.000 0.000 0.000 0.000 0.000 Not Reported Not Reported
07/12/2019 12:43 AM 70.88 61.70 55.94 92.84 62.24 59.0 Not Reported 2.24 W 4.03 W 5.14 W No 0.000 No Precipitation 06/07/2019 09:29 AM 06/07/2019 09:35 AM 0.000 0.000 0.000 0.000 0.000 Not Reported Not Reported
07/12/2019 12:58 AM 71.60 61.34 54.86 92.84 62.24 55.0 Not Reported 1.79 W 2.68 W 5.37 W No 0.000 No Precipitation 06/07/2019 09:29 AM 06/07/2019 09:35 AM 0.000 0.000 0.000 0.000 0.000 Not Reported Not Reported
07/12/2019 01:13 AM 70.52 60.98 55.04 92.84 62.24 57.0 Not Reported 2.24 NW 2.24 NW 4.70 NW No 0.000 No Precipitation 06/07/2019 09:29 AM 06/07/2019 09:35 AM 0.000 0.000 0.000 0.000 0.000 Not Reported Not Reported
07/12/2019 01:28 AM 69.98 60.80 54.86 92.84 62.24 58.0 Not Reported 2.01 NW 1.79 N 5.59 W No 0.000 No Precipitation 06/07/2019 09:29 AM 06/07/2019 09:35 AM 0.000 0.000 0.000 0.000 0.000 Not Reported Not Reported
07/12/2019 01:43 AM 69.98 60.80 55.04 92.84 62.24 58.0 Not Reported 4.92 SW 6.04 W 3.80 W No 0.000 No Precipitation 06/07/2019 09:29 AM 06/07/2019 09:35 AM 0.000 0.000 0.000 0.000 0.000 Not Reported Not Reported
07/12/2019 01:58 AM 69.62 60.62 54.68 92.84 62.24 59.0 Not Reported 4.92 SW 8.05 SW 6.49 SW No 0.000 No Precipitation 06/07/2019 09:29 AM 06/07/2019 09:35 AM 0.000 0.000 0.000 0.000 0.000 Not Reported Not Reported
07/12/2019 02:13 AM 69.80 60.62 54.86 92.84 62.24 58.0 Not Reported 4.03 W 5.59 SW 7.16 SW No 0.000 No Precipitation 06/07/2019 09:29 AM 06/07/2019 09:35 AM 0.000 0.000 0.000 0.000 0.000 Not Reported Not Reported
07/12/2019 02:28 AM 69.44 60.44 54.68 92.84 62.24 59.0 Not Reported 2.24 NW 3.13 W 7.16 W No 0.000 No Precipitation 06/07/2019 09:29 AM 06/07/2019 09:35 AM 0.000 0.000 0.000 0.000 0.000 Not Reported Not Reported
07/12/2019 02:43 AM 68.54 60.08 54.68 92.84 62.24 61.0 Not Reported 3.58 SW 3.58 SW 7.61 W No 0.000 No Precipitation 06/07/2019 09:29 AM 06/07/2019 09:35 AM 0.000 0.000 0.000 0.000 0.000 Not Reported Not Reported
07/12/2019 02:58 AM 69.44 60.44 54.50 92.84 62.24 58.0 Not Reported 4.25 W 5.14 W 6.49 SW No 0.000 No Precipitation 06/07/2019 09:29 AM 06/07/2019 09:35 AM 0.000 0.000 0.000 0.000 0.000 Not Reported Not Reported
07/12/2019 03:13 AM 68.00 59.90 54.68 92.84 62.24 62.0 Not Reported 5.14 SW 5.37 SW 7.38 SW No 0.000 No Precipitation 06/07/2019 09:29 AM 06/07/2019 09:35 AM 0.000 0.000 0.000 0.000 0.000 Not Reported Not Reported
07/12/2019 03:28 AM 67.82 59.90 54.68 92.84 62.24 62.0 Not Reported 2.91 W 1.79 W 6.04 SW No 0.000 No Precipitation 06/07/2019 09:29 AM 06/07/2019 09:35 AM 0.000 0.000 0.000 0.000 0.000 Not Reported Not Reported
07/12/2019 03:43 AM 68.90 60.26 54.50 92.84 62.24 60.0 Not Reported 6.04 W 4.92 W 8.72 W No 0.000 No Precipitation 06/07/2019 09:29 AM 06/07/2019 09:35 AM 0.000 0.000 0.000 0.000 0.000 Not Reported Not Reported
07/12/2019 03:58 AM 66.74 59.54 54.86 92.84 62.24 65.0 Not Reported 3.13 W 3.80 SW 7.38 W No 0.000 No Precipitation 06/07/2019 09:29 AM 06/07/2019 09:35 AM 0.000 0.000 0.000 0.000 0.000 Not Reported Not Reported
07/12/2019 04:13 AM 68.00 59.90 54.50 92.84 62.24 62.0 Not Reported 4.25 W 5.59 SW 6.93 W No 0.000 No Precipitation 06/07/2019 09:29 AM 06/07/2019 09:35 AM 0.000 0.000 0.000 0.000 0.000 Not Reported Not Reported
07/12/2019 04:28 AM 68.36 59.90 54.50 92.84 62.24 61.0 Not Reported 4.03 W 4.70 W 6.93 W No 0.000 No Precipitation 06/07/2019 09:29 AM 06/07/2019 09:35 AM 0.000 0.000 0.000 0.000 0.000 Not Reported Not Reported
07/12/2019 04:43 AM 67.82 59.72 54.50 92.84 62.24 62.0 Not Reported 3.13 W 1.79 W 8.28 SW No 0.000 No Precipitation 06/07/2019 09:29 AM 06/07/2019 09:35 AM 0.000 0.000 0.000 0.000 0.000 Not Reported Not Reported
07/12/2019 04:58 AM 67.10 59.54 54.50 92.84 62.24 63.0 Not Reported 6.26 W 6.04 W 6.04 NW No 0.000 No Precipitation 06/07/2019 09:29 AM 06/07/2019 09:35 AM 0.000 0.000 0.000 0.000 0.000 Not Reported Not Reported
07/12/2019 05:13 AM 64.94 58.82 54.68 92.84 62.24 69.0 Not Reported 6.93 W 7.38 SW 5.59 W No 0.000 No Precipitation 06/07/2019 09:29 AM 06/07/2019 09:35 AM 0.000 0.000 0.000 0.000 0.000 Not Reported Not Reported
07/12/2019 05:28 AM 66.02 59.00 54.50 92.84 62.24 65.0 Not Reported 6.71 W 6.04 W 9.40 SW No 0.000 No Precipitation 06/07/2019 09:29 AM 06/07/2019 09:35 AM 0.000 0.000 0.000 0.000 0.000 Not Reported Not Reported
07/12/2019 05:43 AM 64.94 58.82 54.68 92.84 62.24 69.0 Not Reported 6.04 SW 7.61 SW 9.84 W No 0.000 No Precipitation 06/07/2019 09:29 AM 06/07/2019 09:35 AM 0.000 0.000 0.000 0.000 0.000 Not Reported Not Reported
07/12/2019 05:58 AM 66.92 59.36 54.14 92.84 62.24 63.0 Not Reported 8.05 W 8.05 W 8.95 SW No 0.000 No Precipitation 06/07/2019 09:29 AM 06/07/2019 09:35 AM 0.000 0.000 0.000 0.000 0.000 Not Reported Not Reported
07/12/2019 06:13 AM 65.84 59.00 54.50 92.84 62.96 67.0 Not Reported 7.61 W 8.05 W 10.07 W No 0.000 No Precipitation 06/07/2019 09:29 AM 06/07/2019 09:35 AM 0.000 0.000 0.000 0.000 0.000 Not Reported Not Reported
07/12/2019 06:28 AM 66.56 59.18 54.50 92.84 63.14 65.0 Not Reported 7.83 W 7.16 W 10.07 W No 0.000 No Precipitation 06/07/2019 09:29 AM 06/07/2019 09:35 AM 0.000 0.000 0.000 0.000 0.000 Not Reported Not Reported
07/12/2019 06:43 AM 65.84 59.00 54.50 92.84 63.14 66.0 Not Reported 5.82 W 4.25 W 7.38 W No 0.000 No Precipitation 06/07/2019 09:29 AM 06/07/2019 09:35 AM 0.000 0.000 0.000 0.000 0.000 Not Reported Not Reported
07/12/2019 06:58 AM 65.30 58.82 54.68 92.84 63.14 68.0 Not Reported 4.25 W 4.03 W 7.38 W No 0.000 No Precipitation 06/07/2019 09:29 AM 06/07/2019 09:35 AM 0.000 0.000 0.000 0.000 0.000 Not Reported Not Reported
07/12/2019 07:13 AM 65.48 59.00 54.86 92.84 63.14 68.0 Not Reported 6.71 W 6.71 W 8.50 W No 0.000 No Precipitation 06/07/2019 09:29 AM 06/07/2019 09:35 AM 0.000 0.000 0.000 0.000 0.000 Not Reported Not Reported
07/12/2019 07:28 AM 64.40 58.64 54.86 92.84 63.14 71.0 Not Reported 5.82 SW 5.82 SW 8.28 SW No 0.000 No Precipitation 06/07/2019 09:29 AM 06/07/2019 09:35 AM 0.000 0.000 0.000 0.000 0.000 Not Reported Not Reported
07/12/2019 07:43 AM 65.84 59.18 54.86 92.84 63.86 67.0 Not Reported 2.68 W 5.37 NW 7.16 NW No 0.000 No Precipitation 06/07/2019 09:29 AM 06/07/2019 09:35 AM 0.000 0.000 0.000 0.000 0.000 Not Reported Not Reported
07/12/2019 07:58 AM 67.46 59.72 54.68 92.84 63.86 63.0 Not Reported 6.49 W 5.14 W 8.50 W No 0.000 No Precipitation 06/07/2019 09:29 AM 06/07/2019 09:35 AM 0.000 0.000 0.000 0.000 0.000 Not Reported Not Reported
07/12/2019 08:13 AM 69.26 60.08 53.96 92.84 63.86 58.0 Not Reported 8.28 W 4.25 W 10.07 W No 0.000 No Precipitation 06/07/2019 09:29 AM 06/07/2019 09:35 AM 0.000 0.000 0.000 0.000 0.000 Not Reported Not Reported
07/12/2019 08:28 AM 69.62 60.62 54.86 92.84 63.86 59.0 Not Reported 5.82 W 5.59 W 8.72 W No 0.000 No Precipitation 06/07/2019 09:29 AM 06/07/2019 09:35 AM 0.000 0.000 0.000 0.000 0.000 Not Reported Not Reported
07/12/2019 08:43 AM 70.88 60.80 54.32 92.84 63.86 56.0 Not Reported 4.70 W 5.82 N 14.99 W No 0.000 No Precipitation 06/07/2019 09:29 AM 06/07/2019 09:35 AM 0.000 0.000 0.000 0.000 0.000 Not Reported Not Reported
07/12/2019 08:58 AM 72.50 61.52 54.50 92.84 63.86 52.0 Not Reported 3.13 W 2.68 NW 7.16 NW No 0.000 No Precipitation 06/07/2019 09:29 AM 06/07/2019 09:35 AM 0.000 0.000 0.000 0.000 0.000 Not Reported Not Reported
07/12/2019 09:13 AM 73.76 61.88 54.50 92.84 63.86 51.0 Not Reported 3.58 NW 3.36 NW 4.47 NW No 0.000 No Precipitation 06/07/2019 09:29 AM 06/07/2019 09:35 AM 0.000 0.000 0.000 0.000 0.000 Not Reported Not Reported
07/12/2019 09:28 AM 74.84 62.24 54.32 92.84 63.86 48.0 Not Reported 4.70 W 3.80 W 6.26 W No 0.000 No Precipitation 06/07/2019 09:29 AM 06/07/2019 09:35 AM 0.000 0.000 0.000 0.000 0.000 Not Reported Not Reported
07/12/2019 09:43 AM 75.92 62.96 55.04 92.84 63.86 48.0 Not Reported 4.47 NW 2.46 W 6.93 W No 0.000 No Precipitation 06/07/2019 09:29 AM 06/07/2019 09:35 AM 0.000 0.000 0.000 0.000 0.000 Not Reported Not Reported
07/12/2019 09:58 AM 77.36 63.50 54.86 92.84 63.86 45.0 Not Reported 2.46 NW 2.24 NW 6.71 NW No 0.000 No Precipitation 06/07/2019 09:29 AM 06/07/2019 09:35 AM 0.000 0.000 0.000 0.000 0.000 Not Reported Not Reported
07/12/2019 10:13 AM 78.62 63.86 54.86 92.84 63.86 44.0 Not Reported 5.14 W 4.03 W 6.49 NW No 0.000 No Precipitation 06/07/2019 09:29 AM 06/07/2019 09:35 AM 0.000 0.000 0.000 0.000 0.000 Not Reported Not Reported
07/12/2019 10:28 AM 80.60 64.58 54.68 92.84 63.86 40.0 Not Reported 3.80 NW 3.80 W 8.95 W No 0.000 No Precipitation 06/07/2019 09:29 AM 06/07/2019 09:35 AM 0.000 0.000 0.000 0.000 0.000 Not Reported Not Reported
07/12/2019 10:43 AM 82.22 64.94 54.50 92.84 63.86 38.0 Not Reported 4.47 W 3.13 W 4.70 NW No 0.000 No Precipitation 06/07/2019 09:29 AM 06/07/2019 09:35 AM 0.000 0.000 0.000 0.000 0.000 Not Reported Not Reported
07/12/2019 10:58 AM 82.94 64.94 53.78 92.84 63.86 36.0 Not Reported 2.68 W 2.01 W 4.92 W No 0.000 No Precipitation 06/07/2019 09:29 AM 06/07/2019 09:35 AM 0.000 0.000 0.000 0.000 0.000 Not Reported Not Reported
07/12/2019 11:13 AM 85.64 66.20 54.68 92.84 63.86 34.0 Not Reported 1.79 SW 1.12 SW 3.13 S No 0.000 No Precipitation 06/07/2019 09:29 AM 06/07/2019 09:35 AM 0.000 0.000 0.000 0.000 0.000 Not Reported Not Reported
07/12/2019 11:28 AM 85.64 66.56 55.40 92.84 63.86 35.0 Not Reported 2.01 SE 1.79 E 2.46 SW No 0.000 No Precipitation 06/07/2019 09:29 AM 06/07/2019 09:35 AM 0.000 0.000 0.000 0.000 0.000 Not Reported Not Reported
07/12/2019 11:43 AM 86.54 66.56 55.04 92.84 63.86 34.0 Not Reported 2.46 SE 2.01 SE 3.13 SE No 0.000 No Precipitation 06/07/2019 09:29 AM 06/07/2019 09:35 AM 0.000 0.000 0.000 0.000 0.000 Not Reported Not Reported
07/12/2019 11:58 AM 87.26 67.82 57.02 92.84 63.86 35.0 Not Reported 5.14 E 5.14 E 4.47 E No 0.000 No Precipitation 06/07/2019 09:29 AM 06/07/2019 09:35 AM 0.000 0.000 0.000 0.000 0.000 Not Reported Not Reported
07/12/2019 12:13 PM 86.36 67.28 56.66 92.84 63.86 36.0 Not Reported 7.61 E 5.37 SE 7.83 E No 0.000 No Precipitation 06/07/2019 09:29 AM 06/07/2019 09:35 AM 0.000 0.000 0.000 0.000 0.000 Not Reported Not Reported
07/12/2019 12:28 PM 87.44 67.46 55.94 92.84 63.86 34.0 Not Reported 8.28 E 6.93 E 10.29 E No 0.000 No Precipitation 06/07/2019 09:29 AM 06/07/2019 09:35 AM 0.000 0.000 0.000 0.000 0.000 Not Reported Not Reported
07/12/2019 12:43 PM 87.44 68.00 57.20 92.84 63.86 36.0 Not Reported 8.28 E 8.28 SE 10.51 E No 0.000 No Precipitation 06/07/2019 09:29 AM 06/07/2019 09:35 AM 0.000 0.000 0.000 0.000 0.000 Not Reported Not Reported
07/12/2019 12:58 PM 88.16 67.82 56.48 92.84 63.86 34.0 Not Reported 6.93 E 4.25 E 10.74 E No 0.000 No Precipitation 06/07/2019 09:29 AM 06/07/2019 09:35 AM 0.000 0.000 0.000 0.000 0.000 Not Reported Not Reported
07/12/2019 01:13 PM 89.24 68.72 57.74 92.84 63.86 34.0 Not Reported 8.05 E 6.04 E 6.71 NE No 0.000 No Precipitation 06/07/2019 09:29 AM 06/07/2019 09:35 AM 0.000 0.000 0.000 0.000 0.000 Not Reported Not Reported
07/12/2019 01:28 PM 89.78 69.08 57.92 92.84 63.86 34.0 Not Reported 6.04 E 5.14 SE 11.18 E No 0.000 No Precipitation 06/07/2019 09:29 AM 06/07/2019 09:35 AM 0.000 0.000 0.000 0.000 0.000 Not Reported Not Reported
07/12/2019 01:43 PM 89.96 68.54 56.84 92.84 63.86 32.0 Not Reported 8.05 E 9.40 SE 11.18 E No 0.000 No Precipitation 06/07/2019 09:29 AM 06/07/2019 09:35 AM 0.000 0.000 0.000 0.000 0.000 Not Reported Not Reported
07/12/2019 01:58 PM 91.04 69.08 57.02 92.84 63.86 31.0 Not Reported 8.95 E 8.05 E 10.51 E No 0.000 No Precipitation 06/07/2019 09:29 AM 06/07/2019 09:35 AM 0.000 0.000 0.000 0.000 0.000 Not Reported Not Reported
07/12/2019 02:13 PM 91.94 69.08 56.48 92.84 63.86 30.0 Not Reported 4.70 SE 3.58 SW 11.86 E No 0.000 No Precipitation 06/07/2019 09:29 AM 06/07/2019 09:35 AM 0.000 0.000 0.000 0.000 0.000 Not Reported Not Reported
07/12/2019 02:28 PM 92.48 69.26 56.66 93.56 63.86 30.0 Not Reported 3.58 S 2.68 S 8.05 SE No 0.000 No Precipitation 06/07/2019 09:29 AM 06/07/2019 09:35 AM 0.000 0.000 0.000 0.000 0.000 Not Reported Not Reported
07/12/2019 02:43 PM 91.58 69.26 57.20 93.56 63.86 31.0 Not Reported 6.71 SE 3.13 SE 10.07 E No 0.000 No Precipitation 06/07/2019 09:29 AM 06/07/2019 09:35 AM 0.000 0.000 0.000 0.000 0.000 Not Reported Not Reported
07/12/2019 02:58 PM 92.66 69.44 56.84 94.64 63.86 30.0 Not Reported 6.26 E 1.57 NE 8.50 E No 0.000 No Precipitation 06/07/2019 09:29 AM 06/07/2019 09:35 AM 0.000 0.000 0.000 0.000 0.000 Not Reported Not Reported
07/12/2019 03:13 PM 94.28 69.80 56.66 94.82 63.86 28.0 Not Reported 2.24 SE 9.17 SE 12.53 E No 0.000 No Precipitation 06/07/2019 09:29 AM 06/07/2019 09:35 AM 0.000 0.000 0.000 0.000 0.000 Not Reported Not Reported
07/12/2019 03:28 PM 93.56 69.44 56.12 94.82 63.86 28.0 Not Reported 4.92 SE 5.82 E 10.07 E No 0.000 No Precipitation 06/07/2019 09:29 AM 06/07/2019 09:35 AM 0.000 0.000 0.000 0.000 0.000 Not Reported Not Reported
07/12/2019 03:43 PM 94.10 69.44 55.58 94.82 63.86 27.0 Not Reported 5.59 E 6.93 E 7.83 SE No 0.000 No Precipitation 06/07/2019 09:29 AM 06/07/2019 09:35 AM 0.000 0.000 0.000 0.000 0.000 Not Reported Not Reported
07/12/2019 03:58 PM 93.02 69.08 55.76 94.82 63.86 28.0 Not Reported 6.26 SE 6.26 E 8.05 E No 0.000 No Precipitation 06/07/2019 09:29 AM 06/07/2019 09:35 AM 0.000 0.000 0.000 0.000 0.000 Not Reported Not Reported
07/12/2019 04:13 PM 93.56 69.08 55.58 95.36 63.86 28.0 Not Reported 9.17 E 8.05 E 13.42 E No 0.000 No Precipitation 06/07/2019 09:29 AM 06/07/2019 09:35 AM 0.000 0.000 0.000 0.000 0.000 Not Reported Not Reported
07/12/2019 04:28 PM 95.18 69.62 55.76 95.36 63.86 26.0 Not Reported 4.92 SE 8.50 E 10.96 E No 0.000 No Precipitation 06/07/2019 09:29 AM 06/07/2019 09:35 AM 0.000 0.000 0.000 0.000 0.000 Not Reported Not Reported
07/12/2019 04:43 PM 94.10 69.26 55.22 95.36 63.86 27.0 Not Reported 7.61 E 6.49 SE 13.42 E No 0.000 No Precipitation 06/07/2019 09:29 AM 06/07/2019 09:35 AM 0.000 0.000 0.000 0.000 0.000 Not Reported Not Reported
07/12/2019 04:58 PM 94.64 69.62 55.76 95.36 63.86 27.0 Not Reported 4.70 E 5.14 SE 10.29 E No 0.000 No Precipitation 06/07/2019 09:29 AM 06/07/2019 09:35 AM 0.000 0.000 0.000 0.000 0.000 Not Reported Not Reported
07/12/2019 05:13 PM 94.64 69.08 54.50 96.62 63.86 26.0 Not Reported 8.95 E 11.41 SE 12.53 SE No 0.000 No Precipitation 06/07/2019 09:29 AM 06/07/2019 09:35 AM 0.000 0.000 0.000 0.000 0.000 Not Reported Not Reported
07/12/2019 05:28 PM 94.46 69.44 55.76 96.62 63.86 27.0 Not Reported 8.05 E 7.38 E 12.53 E No 0.000 No Precipitation 06/07/2019 09:29 AM 06/07/2019 09:35 AM 0.000 0.000 0.000 0.000 0.000 Not Reported Not Reported
07/12/2019 05:43 PM 95.72 69.08 53.96 96.62 63.86 24.0 Not Reported 6.04 E 5.59 E 10.96 E No 0.000 No Precipitation 06/07/2019 09:29 AM 06/07/2019 09:35 AM 0.000 0.000 0.000 0.000 0.000 Not Reported Not Reported
07/12/2019 05:58 PM 95.36 68.54 53.06 96.62 63.86 24.0 Not Reported 5.59 E 5.14 E 10.29 E No 0.000 No Precipitation 06/07/2019 09:29 AM 06/07/2019 09:35 AM 0.000 0.000 0.000 0.000 0.000 Not Reported Not Reported
07/12/2019 06:13 PM 94.82 68.36 53.06 96.62 63.86 24.0 Not Reported 9.17 E 7.38 E 8.95 E No 0.000 No Precipitation 06/07/2019 09:29 AM 06/07/2019 09:35 AM 0.000 0.000 0.000 0.000 0.000 Not Reported Not Reported
07/12/2019 06:28 PM 95.72 68.72 53.24 96.62 63.86 24.0 Not Reported 6.71 SE 6.04 S 11.86 E No 0.000 No Precipitation 06/07/2019 09:29 AM 06/07/2019 09:35 AM 0.000 0.000 0.000 0.000 0.000 Not Reported Not Reported
07/12/2019 06:43 PM 95.18 68.90 53.78 96.62 63.86 25.0 Not Reported 4.70 E 6.49 SE 8.28 E No 0.000 No Precipitation 06/07/2019 09:29 AM 06/07/2019 09:35 AM 0.000 0.000 0.000 0.000 0.000 Not Reported Not Reported
07/12/2019 06:58 PM 94.82 68.18 52.34 96.62 63.86 23.0 Not Reported 6.93 E 5.37 SE 7.38 E No 0.000 No Precipitation 06/07/2019 09:29 AM 06/07/2019 09:35 AM 0.000 0.000 0.000 0.000 0.000 Not Reported Not Reported
07/12/2019 07:13 PM 94.28 68.36 53.06 96.62 63.86 24.0 Not Reported 7.16 E 6.93 SE 9.62 E No 0.000 No Precipitation 06/07/2019 09:29 AM 06/07/2019 09:35 AM 0.000 0.000 0.000 0.000 0.000 Not Reported Not Reported
07/12/2019 07:28 PM 94.82 68.54 53.42 96.62 63.86 24.0 Not Reported 4.70 E 6.26 SE 10.51 E No 0.000 No Precipitation 06/07/2019 09:29 AM 06/07/2019 09:35 AM 0.000 0.000 0.000 0.000 0.000 Not Reported Not Reported
07/12/2019 07:43 PM 94.46 68.36 53.24 96.62 63.86 25.0 Not Reported 8.95 E 7.16 E 11.63 E No 0.000 No Precipitation 06/07/2019 09:29 AM 06/07/2019 09:35 AM 0.000 0.000 0.000 0.000 0.000 Not Reported Not Reported
07/12/2019 07:58 PM 93.74 68.18 53.24 96.62 63.86 25.0 Not Reported 7.16 E 6.26 E 11.18 E No 0.000 No Precipitation 06/07/2019 09:29 AM 06/07/2019 09:35 AM 0.000 0.000 0.000 0.000 0.000 Not Reported Not Reported
07/12/2019 08:13 PM 93.74 68.36 53.78 96.62 63.86 26.0 Not Reported 4.92 SE 3.80 E 5.37 E No 0.000 No Precipitation 06/07/2019 09:29 AM 06/07/2019 09:35 AM 0.000 0.000 0.000 0.000 0.000 Not Reported Not Reported
07/12/2019 08:28 PM 93.20 68.90 55.22 96.62 63.86 27.0 Not Reported 3.13 E 3.13 E 5.37 E No 0.000 No Precipitation 06/07/2019 09:29 AM 06/07/2019 09:35 AM 0.000 0.000 0.000 0.000 0.000 Not Reported Not Reported
07/12/2019 08:43 PM 91.76 68.00 54.32 96.62 63.86 28.0 Not Reported 2.68 E 3.13 SE 3.58 SE No 0.000 No Precipitation 06/07/2019 09:29 AM 06/07/2019 09:35 AM 0.000 0.000 0.000 0.000 0.000 Not Reported Not Reported
07/12/2019 08:58 PM 88.52 68.18 56.84 96.62 63.86 34.0 Not Reported 4.03 E 3.80 E 5.37 E No 0.000 No Precipitation 06/07/2019 09:29 AM 06/07/2019 09:35 AM 0.000 0.000 0.000 0.000 0.000 Not Reported Not Reported
07/12/2019 09:13 PM 86.90 68.36 58.46 96.62 63.86 38.0 Not Reported 1.79 E 2.24 SE 4.03 SE No 0.000 No Precipitation 06/07/2019 09:29 AM 06/07/2019 09:35 AM 0.000 0.000 0.000 0.000 0.000 Not Reported Not Reported
07/12/2019 09:28 PM 84.56 67.82 58.82 96.62 63.86 41.0 Not Reported 0.45 S 0.89 SE 2.46 E No 0.000 No Precipitation 06/07/2019 09:29 AM 06/07/2019 09:35 AM 0.000 0.000 0.000 0.000 0.000 Not Reported Not Reported
07/12/2019 09:43 PM 83.48 67.46 59.00 96.62 63.86 43.0 Not Reported 0.45 NE 1.34 NE 1.57 E No 0.000 No Precipitation 06/07/2019 09:29 AM 06/07/2019 09:35 AM 0.000 0.000 0.000 0.000 0.000 Not Reported Not Reported
07/12/2019 09:58 PM 81.32 67.28 59.72 96.62 63.86 47.0 Not Reported 0.22 NW 0.67 NW 2.91 E No 0.000 No Precipitation 06/07/2019 09:29 AM 06/07/2019 09:35 AM 0.000 0.000 0.000 0.000 0.000 Not Reported Not Reported
07/12/2019 10:13 PM 79.88 66.74 59.54 96.62 63.86 49.0 Not Reported 0.00 N 0.00 N 1.12 NW No 0.000 No Precipitation 06/07/2019 09:29 AM 06/07/2019 09:35 AM 0.000 0.000 0.000 0.000 0.000 Not Reported Not Reported
07/12/2019 10:28 PM 79.34 66.56 59.72 96.62 63.86 51.0 Not Reported 0.00 N 0.00 E 1.79 W No 0.000 No Precipitation 06/07/2019 09:29 AM 06/07/2019 09:35 AM 0.000 0.000 0.000 0.000 0.000 Not Reported Not Reported
07/12/2019 10:43 PM 79.34 66.56 59.36 96.62 63.86 50.0 Not Reported 0.22 SW 0.22 W 1.57 SE No 0.000 No Precipitation 06/07/2019 09:29 AM 06/07/2019 09:35 AM 0.000 0.000 0.000 0.000 0.000 Not Reported Not Reported
07/12/2019 10:58 PM 77.36 65.84 59.54 96.62 63.86 54.0 Not Reported 0.89 E 1.12 E 1.79 NW No 0.000 No Precipitation 06/07/2019 09:29 AM 06/07/2019 09:35 AM 0.000 0.000 0.000 0.000 0.000 Not Reported Not Reported
07/12/2019 11:13 PM 77.18 65.48 58.82 96.62 63.86 53.0 Not Reported 0.45 N 0.00 NE 2.01 NW No 0.000 No Precipitation 06/07/2019 09:29 AM 06/07/2019 09:35 AM 0.000 0.000 0.000 0.000 0.000 Not Reported Not Reported
07/12/2019 11:28 PM 76.28 64.94 58.46 96.62 63.86 54.0 Not Reported 1.12 NW 0.89 NW 2.01 W No 0.000 No Precipitation 06/07/2019 09:29 AM 06/07/2019 09:35 AM 0.000 0.000 0.000 0.000 0.000 Not Reported Not Reported
07/12/2019 11:43 PM 76.28 64.94 58.46 96.62 63.86 54.0 Not Reported 2.24 SW 1.34 SW 3.58 W No 0.000 No Precipitation 06/07/2019 09:29 AM 06/07/2019 09:35 AM 0.000 0.000 0.000 0.000 0.000 Not Reported Not Reported
07/12/2019 11:58 PM 74.84 64.40 58.46 96.62 63.86 56.0 Not Reported 0.00 N 0.00 NE 2.46 W No 0.000 No Precipitation 06/07/2019 09:29 AM 06/07/2019 09:35 AM 0.000 0.000 0.000 0.000 0.000 Not Reported Not Reported